Cambridge Niab, United Kingdom

5:45 PM GMT on February 23, 2017 (GMT +0000)
Church Road | | Change Station

Elev 39 ft 52.21 °N, 0.19 °E | Updated 3 minutes ago

Partly Cloudy
Partly Cloudy
45.1 °F
Feels Like 40 °F
N
10.6
Wind Variable Wind from West
Gusts 18.0 mph

Today
High -- | Low -- °F
--% Chance of Precip.
Yesterday
High -- | Low -- °F
Precip. -- in
Pressure 29.34 in
Visibility 6.2 miles
Clouds Mostly Cloudy 3200 ft
Overcast 3900 ft
Windchill 40 °F
Dew Point 37 °F
Humidity 73%
Rainfall 0.07 in
Snow Depth Not available.
6:58 AM 5:27 PM
Waning Crescent, 9% visible
SPECI EGUN 231737Z AUTO 29027G44KT 9999 BKN032 OVC039 07/04 A2934 RMK AO2 RAB09E33RAB35E37 $
Pressure 29.34 in
Visibility 6.2 miles
Clouds Mostly Cloudy 3200 ft
Overcast 3900 ft
Windchill 40 °F
Dew Point 37 °F
Humidity 73%
Rainfall 0.07 in
Snow Depth Not available.
6:58 AM 5:27 PM
Waning Crescent, 9% visible
SPECI EGUN 231737Z AUTO 29027G44KT 9999 BKN032 OVC039 07/04 A2934 RMK AO2 RAB09E33RAB35E37 $

Get Your Daily Forecast Email!

Thanks for signing up!

Be on the lookout for a verification email in your inbox.

You'll start receiving the daily forecast at 8 AM.

×

10-Day Weather Forecast

×

Almanac

Astronomy

Feb. 23, 2017 Rise Set
Actual Time
Civil Twilight
Nautical Twilight
Astronomical Twilight
Moon
Length of Visible Light
Length of Day
Tomorrow will be .
, % of the Moon is Illuminated

Today's Extremes

Country Highs Country Lows

Community

WunderPhotos

Upload Photos

1,962,540 photos uploaded!

WunderBlog® & News

Nearby

Air Quality

  Air Quality AQ Index Pollutant
Not available.

Snow Depth

Station Depth Elevation

Earthquake Activity

City Distance Mag. Time & Date
Minimum magnitude displayed is 2.5.

Coastal Water Temperatures

Place Temperature

Stations

Nearby Weather Stations

Station Location Temp. Windchill Dew Point Humidity Wind Precip. Elev Updated Type